Tuesday, January 17, 2017, 3:48 AM EST
Back to Local

KMPO, Mt Pocono Pocono Mountains

Location: Pocono Summit, PA, United States Lat: 41.133
Local Time: 3:48 AM EST ( 8:48 GMT) Lon: -75.383
Time Zone: US/Eastern Elev: 1915 ft

Show me the last for .
Show Decoded

2017-01-17 02:53 METAR KMPO 170753Z AUTO 30005KT 10SM OVC036 00/M03 A3018 RMK AO2 SLP236
                 T00001028 =
2017-01-17 01:53 METAR KMPO 170653Z AUTO 31006KT 10SM OVC039 00/M03 A3017 RMK AO2 SLP236
                 T00001033 =
2017-01-17 00:53 METAR KMPO 170553Z AUTO 29008KT 10SM OVC039 00/M03 A3018 RMK AO2 SLP240 60000
                 T00001033 10006 20000 58014 =
2017-01-16 23:53 METAR KMPO 170453Z AUTO 27010KT 10SM OVC045 00/M03 A3020 RMK AO2 SLP247
                 T00001033 400331156 =
2017-01-16 22:53 METAR KMPO 170353Z AUTO 29007KT 10SM OVC049 00/M04 A3022 RMK AO2 UPB12E28 SLP254
                 P0000 T00001039 =
2017-01-16 21:53 METAR KMPO 170253Z AUTO 29005KT 10SM OVC055 00/M04 A3023 RMK AO2 SLP259
                 T00001044 58006 =
2017-01-16 21:31 METAR KMPO 170231Z AUTO 30005KT 10SM SCT008 OVC055 00/M04 A3023 RMK AO2
                 T00001044 =
2017-01-16 21:12 METAR KMPO 170212Z AUTO 29006KT 10SM BKN008 OVC065 00/M04 A3024 RMK AO2
                 T00001044 =
2017-01-16 21:01 METAR KMPO 170201Z AUTO 28004KT 10SM SCT008 OVC070 00/M04 A3024 RMK AO2
                 T00001044 =
2017-01-16 20:53 METAR KMPO 170153Z AUTO 29005KT 10SM OVC070 01/M04 A3024 RMK AO2 SLP265
                 T00061044 =
2017-01-16 19:53 METAR KMPO 170053Z AUTO 27004KT 10SM SCT007 OVC070 00/M05 A3024 RMK AO2 SLP272
                 T00001050 =
2017-01-16 19:43 METAR KMPO 170043Z AUTO 30004KT 10SM BKN007 OVC070 00/M05 A3024 RMK AO2
                 T00001050 =
2017-01-16 19:34 METAR KMPO 170034Z AUTO 27004KT 10SM SCT007 OVC070 00/M05 A3024 RMK AO2
                 T00001050 =
2017-01-16 18:53 METAR KMPO 162353Z AUTO 27006KT 10SM FEW013 BKN070 OVC080 01/M06 A3025 RMK AO2
                 SLP273 T00061056 10033 20000 58004 =
2017-01-16 17:53 METAR KMPO 162253Z AUTO 27005KT 10SM OVC100 01/M06 A3025 RMK AO2 SLP278
                 T00061056 =
2017-01-16 16:53 METAR KMPO 162153Z AUTO 00000KT 10SM CLR 01/M05 A3025 RMK AO2 SLP277 T00111050 =
2017-01-16 15:53 METAR KMPO 162053Z AUTO 27005KT 10SM CLR 02/M06 A3026 RMK AO2 SLP278 T00221056
                 56013 =
2017-01-16 14:53 METAR KMPO 161953Z AUTO 26008KT 10SM CLR 03/M05 A3027 RMK AO2 SLP278 T00331050 =
2017-01-16 13:53 METAR KMPO 161853Z AUTO VRB06KT 10SM CLR 03/M05 A3027 RMK AO2 SLP280 T00281050 =
2017-01-16 12:53 METAR KMPO 161753Z AUTO 26010KT 10SM CLR 02/M06 A3030 RMK AO2 SLP291 T00171056
                 10017 21139 58018 =
2017-01-16 11:53 METAR KMPO 161653Z AUTO 28013KT 10SM CLR 01/M09 A3033 RMK AO2 SLP301 T00061089 =
2017-01-16 10:53 METAR KMPO 161553Z AUTO 28008KT 10SM CLR M01/M08 A3035 RMK AO2 SLP306 T10111083
                 =
2017-01-16 09:53 METAR KMPO 161453Z AUTO 26006KT 10SM CLR M04/M07 A3035 RMK AO2 SLP311 T10391072
                 51009 =
2017-01-16 08:53 METAR KMPO 161353Z AUTO 28004KT 10SM CLR M07/M09 A3035 RMK AO2 SLP311 T10671094
                 =
2017-01-16 07:53 METAR KMPO 161253Z AUTO 00000KT 10SM CLR M12/M14 A3034 RMK AO2 SLP311 T11171139
                 =
2017-01-16 06:53 METAR KMPO 161153Z AUTO 00000KT 10SM CLR M13/M16 A3032 RMK AO2 SLP308 I6000
                 T11331161 11122 21156 58001 =
2017-01-16 05:53 METAR KMPO 161053Z AUTO 00000KT 10SM CLR M15/M17 A3034 RMK AO2 SLP312 T11501172
                 =
2017-01-16 04:53 METAR KMPO 160953Z AUTO 00000KT 10SM CLR M14/M17 A3032 RMK AO2 SLP307 T11441167
                 =
2017-01-16 03:53 METAR KMPO 160853Z AUTO 00000KT 10SM CLR M14/M17 A3033 RMK AO2 SLP307 I3000
                 T11441167 50002 =

Support USWX by starting your Amazon purchase here.